createdAt,value
2017-07-22T00:01:49.687Z,93.70
2017-07-22T00:04:16.377Z,94.20
2017-07-22T00:06:42.325Z,93.80
2017-07-22T00:09:08.257Z,93.90
2017-07-22T00:11:34.188Z,93.70
2017-07-22T00:14:00.178Z,93.70
2017-07-22T00:16:26.162Z,93.80
2017-07-22T00:18:52.854Z,94.60
2017-07-22T00:21:18.788Z,94.60
2017-07-22T00:23:44.729Z,94.60
2017-07-22T00:26:10.651Z,94.60
2017-07-22T00:28:36.645Z,94.60
2017-07-22T00:31:02.574Z,94.50
2017-07-22T00:33:28.516Z,94.50
2017-07-22T00:35:54.488Z,94.50
2017-07-22T00:38:21.155Z,93.60
2017-07-22T00:40:47.072Z,93.90
2017-07-22T00:43:13.802Z,94.10
2017-07-22T00:45:39.784Z,94.10
2017-07-22T00:48:05.762Z,94.60
2017-07-22T00:50:32.454Z,93.50
2017-07-22T00:52:58.393Z,93.40
2017-07-22T00:55:24.333Z,93.40
2017-07-22T00:57:50.230Z,93.20
2017-07-22T01:00:16.191Z,93.20
2017-07-22T01:02:42.122Z,92.40
2017-07-22T01:05:08.092Z,91.60
2017-07-22T01:07:34.005Z,91.20
2017-07-22T01:10:00.693Z,90.90
2017-07-22T01:12:26.625Z,90.90
2017-07-22T01:14:52.563Z,90.90
2017-07-22T01:17:18.523Z,90.60
2017-07-22T01:19:45.243Z,90.10
2017-07-22T01:22:11.240Z,90.50
2017-07-22T01:24:37.171Z,90.00
2017-07-22T01:27:03.151Z,89.70
2017-07-22T01:29:29.072Z,89.60
2017-07-22T01:31:55.081Z,89.50
2017-07-22T01:34:21.000Z,89.20
2017-07-22T01:36:47.018Z,89.70
2017-07-22T01:39:12.978Z,89.90
2017-07-22T01:41:38.985Z,89.70
2017-07-22T01:44:04.932Z,89.80
2017-07-22T01:46:30.927Z,90.00
2017-07-22T01:48:56.837Z,89.50
2017-07-22T01:51:22.818Z,89.30
2017-07-22T01:53:48.758Z,89.10
2017-07-22T01:56:14.699Z,89.80
2017-07-22T01:58:40.642Z,89.90
2017-07-22T02:01:07.351Z,89.30
2017-07-22T02:03:33.300Z,89.30
2017-07-22T02:05:59.237Z,89.50
2017-07-22T02:08:25.182Z,89.40
2017-07-22T02:10:51.139Z,90.00
2017-07-22T02:13:17.088Z,90.60
2017-07-22T02:15:43.117Z,90.70
2017-07-22T02:18:09.993Z,90.70
2017-07-22T02:20:35.964Z,91.00
2017-07-22T02:23:01.923Z,91.00
2017-07-22T02:25:28.637Z,92.40
2017-07-22T02:27:54.581Z,92.40
2017-07-22T02:30:20.510Z,92.00
2017-07-22T02:32:46.452Z,91.60
2017-07-22T02:35:12.371Z,91.50
2017-07-22T02:37:38.277Z,91.80
2017-07-22T02:40:04.204Z,92.70
2017-07-22T02:42:30.141Z,93.30
2017-07-22T02:44:56.082Z,93.40
2017-07-22T02:47:22.037Z,93.60
2017-07-22T02:49:48.704Z,93.70
2017-07-22T02:52:14.637Z,93.70
2017-07-22T02:54:40.552Z,93.50
2017-07-22T02:57:06.470Z,93.20
2017-07-22T02:59:32.409Z,92.70
2017-07-22T03:01:58.350Z,92.60
2017-07-22T03:04:24.273Z,92.50
2017-07-22T03:06:50.221Z,92.40
2017-07-22T03:09:16.136Z,92.50
2017-07-22T03:11:42.096Z,92.70
2017-07-22T03:14:08.041Z,92.10
2017-07-22T03:16:34.731Z,90.80
2017-07-22T03:19:00.633Z,90.80
2017-07-22T03:21:26.612Z,90.40
2017-07-22T03:23:52.528Z,90.10
2017-07-22T03:26:18.451Z,90.40
2017-07-22T03:28:44.353Z,90.30
2017-07-22T03:31:10.272Z,90.30
2017-07-22T03:33:36.207Z,90.90
2017-07-22T03:36:02.130Z,90.50
2017-07-22T03:38:28.041Z,90.30
2017-07-22T03:40:54.704Z,90.10
2017-07-22T03:43:20.601Z,90.00
2017-07-22T03:45:47.279Z,89.70
2017-07-22T03:48:13.234Z,89.00
2017-07-22T03:50:39.236Z,89.70
2017-07-22T03:53:05.221Z,89.20
2017-07-22T03:55:31.916Z,90.40
2017-07-22T03:57:57.824Z,90.10
2017-07-22T04:00:23.756Z,89.90
2017-07-22T04:02:49.673Z,90.40
2017-07-22T04:05:15.652Z,90.80
2017-07-22T04:07:41.590Z,90.90
2017-07-22T04:10:07.621Z,91.00
2017-07-22T04:12:33.638Z,91.50
2017-07-22T04:14:59.570Z,91.40
2017-07-22T04:17:25.486Z,91.40
2017-07-22T04:19:51.421Z,90.90
2017-07-22T04:22:17.338Z,90.60
2017-07-22T04:24:43.253Z,90.80
2017-07-22T04:27:09.245Z,90.60
2017-07-22T04:29:40.714Z,90.20
2017-07-22T04:32:06.669Z,90.20
2017-07-22T04:34:32.580Z,89.40
2017-07-22T04:36:58.514Z,88.50
2017-07-22T04:39:24.446Z,88.20
2017-07-22T04:41:50.378Z,88.40
2017-07-22T04:44:16.314Z,88.30
2017-07-22T04:46:42.267Z,87.80
2017-07-22T04:49:08.191Z,88.10
2017-07-22T04:51:34.202Z,90.00
2017-07-22T04:54:00.152Z,90.40
2017-07-22T04:56:26.160Z,90.80
2017-07-22T04:58:52.117Z,90.80
2017-07-22T05:01:18.773Z,90.70
2017-07-22T05:03:44.712Z,90.70
2017-07-22T05:06:10.621Z,90.20
2017-07-22T05:08:37.365Z,91.00
2017-07-22T05:11:04.053Z,91.10
2017-07-22T05:13:29.972Z,91.00
2017-07-22T05:15:55.889Z,91.00
2017-07-22T05:18:21.816Z,90.30
2017-07-22T05:20:47.740Z,90.00
2017-07-22T05:23:13.649Z,90.20
2017-07-22T05:25:40.323Z,91.20
2017-07-22T05:28:06.263Z,91.10
2017-07-22T05:30:32.221Z,90.80
2017-07-22T05:32:58.154Z,90.60
2017-07-22T05:35:24.118Z,90.30
2017-07-22T05:37:50.779Z,90.20
2017-07-22T05:40:16.702Z,90.20
2017-07-22T05:42:42.597Z,90.50
2017-07-22T05:45:09.254Z,90.90
2017-07-22T05:47:35.195Z,90.70
2017-07-22T05:50:01.150Z,90.70
2017-07-22T05:52:27.065Z,90.80
2017-07-22T05:54:52.993Z,91.00
2017-07-22T05:57:18.947Z,91.20
2017-07-22T05:59:44.874Z,91.00
2017-07-22T06:02:10.833Z,90.50
2017-07-22T06:04:37.517Z,90.60
2017-07-22T06:07:03.441Z,90.60
2017-07-22T06:09:29.398Z,91.40
2017-07-22T06:11:55.314Z,91.70
2017-07-22T06:14:21.264Z,91.50
2017-07-22T06:16:47.242Z,91.40
2017-07-22T06:19:13.177Z,92.00
2017-07-22T06:21:39.153Z,91.40
2017-07-22T06:24:05.197Z,91.00
2017-07-22T06:26:31.136Z,90.90
2017-07-22T06:28:57.094Z,90.90
2017-07-22T06:31:23.014Z,91.60
2017-07-22T06:33:48.937Z,91.40
2017-07-22T06:36:16.985Z,91.70
2017-07-22T06:38:43.709Z,90.50
2017-07-22T06:41:09.657Z,90.50
2017-07-22T06:43:36.326Z,90.60
2017-07-22T06:46:02.282Z,90.30
2017-07-22T06:48:28.198Z,89.40
2017-07-22T06:50:54.130Z,88.60
2017-07-22T06:53:20.033Z,88.10
2017-07-22T06:55:45.937Z,87.00
2017-07-22T06:58:12.601Z,87.40
2017-07-22T07:00:38.510Z,87.40
2017-07-22T07:03:05.222Z,86.00
2017-07-22T07:05:31.122Z,86.00
2017-07-22T07:07:57.083Z,84.70
2017-07-22T07:10:23.037Z,85.50
2017-07-22T07:12:48.953Z,85.20
2017-07-22T07:15:15.621Z,87.20
2017-07-22T07:17:41.614Z,87.10
2017-07-22T07:20:07.541Z,86.60
2017-07-22T07:22:33.466Z,86.60
2017-07-22T07:24:59.414Z,86.10
2017-07-22T07:27:26.070Z,84.30
2017-07-22T07:29:52.732Z,82.70
2017-07-22T07:32:18.660Z,82.60
2017-07-22T07:34:44.587Z,83.40
2017-07-22T07:37:11.597Z,82.10
2017-07-22T07:39:37.515Z,81.70
2017-07-22T07:42:03.454Z,80.40
2017-07-22T07:44:30.181Z,80.50
2017-07-22T07:46:56.128Z,79.70
2017-07-22T07:49:23.351Z,80.20
2017-07-22T07:51:49.281Z,80.10
2017-07-22T07:54:15.218Z,78.60
2017-07-22T07:56:41.261Z,78.40
2017-07-22T07:59:07.280Z,78.10
2017-07-22T08:01:33.213Z,78.30
2017-07-22T08:04:06.253Z,79.30
2017-07-22T08:06:32.183Z,77.10
2017-07-22T08:08:58.127Z,78.10
2017-07-22T08:11:24.066Z,76.50
2017-07-22T08:13:50.010Z,76.50
2017-07-22T08:16:15.954Z,76.00
2017-07-22T08:18:42.620Z,75.50
2017-07-22T08:21:09.764Z,76.10
2017-07-22T08:23:35.760Z,76.00
2017-07-22T08:26:01.673Z,74.70
2017-07-22T08:28:27.665Z,74.20
2017-07-22T08:30:53.602Z,73.00
2017-07-22T08:33:20.513Z,73.10
2017-07-22T08:35:47.281Z,72.70
2017-07-22T08:38:13.225Z,72.60
2017-07-22T08:40:39.176Z,72.60
2017-07-22T08:43:16.831Z,73.00
2017-07-22T08:45:43.536Z,70.60
2017-07-22T08:48:09.477Z,70.50
2017-07-22T08:50:36.181Z,68.70
2017-07-22T08:53:02.105Z,68.70
2017-07-22T08:55:28.029Z,69.00
2017-07-22T08:57:53.969Z,69.60
2017-07-22T09:00:19.922Z,68.50
2017-07-22T09:02:45.838Z,68.60
2017-07-22T09:05:11.774Z,68.10
2017-07-22T09:07:37.697Z,67.90
2017-07-22T09:10:03.755Z,67.10
2017-07-22T09:12:30.433Z,66.20
2017-07-22T09:14:56.374Z,66.20
2017-07-22T09:17:22.299Z,65.20
2017-07-22T09:19:48.282Z,62.60
2017-07-22T09:22:15.035Z,62.20
2017-07-22T09:24:40.981Z,62.10
2017-07-22T09:27:06.910Z,63.90
2017-07-22T09:29:32.858Z,61.90
2017-07-22T09:31:58.833Z,61.90
2017-07-22T09:34:25.489Z,62.50
2017-07-22T09:36:51.438Z,62.60
2017-07-22T09:39:17.369Z,63.10
2017-07-22T09:41:43.928Z,63.50
2017-07-22T09:44:09.864Z,62.40
2017-07-22T09:46:35.853Z,62.50
2017-07-22T09:49:01.810Z,64.50
2017-07-22T09:51:27.733Z,60.40
2017-07-22T09:53:53.681Z,60.70
2017-07-22T09:56:19.630Z,61.10
2017-07-22T09:58:46.293Z,60.00
2017-07-22T10:01:12.930Z,60.60
2017-07-22T10:03:39.598Z,59.80
2017-07-22T10:06:05.574Z,59.80
2017-07-22T10:08:31.498Z,58.90
2017-07-22T10:11:19.029Z,58.90
2017-07-22T10:13:44.977Z,57.10
2017-07-22T10:16:17.672Z,58.60
2017-07-22T10:18:44.675Z,58.60
2017-07-22T10:21:14.296Z,56.90
2017-07-22T10:23:42.262Z,57.90
2017-07-22T10:26:10.283Z,58.00
2017-07-22T10:28:37.297Z,57.70
2017-07-22T10:31:03.282Z,57.70
2017-07-22T10:33:31.190Z,57.30
2017-07-22T10:35:58.110Z,57.00
2017-07-22T10:38:24.103Z,55.80
2017-07-22T10:40:52.048Z,56.30
2017-07-22T10:43:18.069Z,56.80
2017-07-22T10:45:43.997Z,57.60
2017-07-22T10:48:09.941Z,56.70
2017-07-22T10:50:37.708Z,58.70
2017-07-22T10:53:06.440Z,58.40
2017-07-22T10:55:34.512Z,58.30
2017-07-22T10:58:10.654Z,59.60
2017-07-22T11:00:37.334Z,62.30
2017-07-22T11:03:03.299Z,62.20
2017-07-22T11:05:29.375Z,64.10
2017-07-22T11:07:56.417Z,64.20
2017-07-22T11:10:26.036Z,65.20
2017-07-22T11:12:56.241Z,66.10
2017-07-22T11:15:33.671Z,66.60
2017-07-22T11:18:04.049Z,66.50
2017-07-22T11:20:31.852Z,70.20
2017-07-22T11:22:59.864Z,70.20
2017-07-22T11:25:29.925Z,71.10
2017-07-22T11:28:00.244Z,73.10
2017-07-22T11:30:30.612Z,70.70
2017-07-22T11:32:56.648Z,70.80
2017-07-22T11:35:22.589Z,73.60
2017-07-22T11:37:55.456Z,74.20
2017-07-22T11:40:21.473Z,78.60
2017-07-22T11:42:55.266Z,81.00
2017-07-22T11:45:30.520Z,82.00
2017-07-22T11:48:01.865Z,81.80
2017-07-22T11:50:28.895Z,83.20
2017-07-22T11:52:55.625Z,88.70
2017-07-22T11:55:21.672Z,88.60
2017-07-22T11:57:52.092Z,89.80
2017-07-22T12:00:20.827Z,86.30
2017-07-22T12:02:46.813Z,85.20
2017-07-22T12:05:31.937Z,81.50
2017-07-22T12:08:01.475Z,80.60
2017-07-22T12:10:28.417Z,80.60
2017-07-22T12:13:01.161Z,80.30
2017-07-22T12:15:27.113Z,80.60
2017-07-22T12:18:00.870Z,82.20
2017-07-22T12:20:34.283Z,82.90
2017-07-22T12:23:07.461Z,82.70
2017-07-22T12:25:36.274Z,78.00
2017-07-22T12:28:15.295Z,77.80
2017-07-22T12:30:55.565Z,75.10
2017-07-22T12:33:34.066Z,68.10
2017-07-22T12:36:06.445Z,64.90
2017-07-22T12:41:26.201Z,59.30
2017-07-22T12:44:03.309Z,59.40
2017-07-22T12:46:41.702Z,59.30
2017-07-22T12:49:19.216Z,54.80
2017-07-22T12:51:57.525Z,54.60
2017-07-22T12:54:30.930Z,53.60
2017-07-22T12:57:03.193Z,53.60
2017-07-22T12:59:29.146Z,52.80
2017-07-22T13:02:16.688Z,53.70
2017-07-22T13:04:47.247Z,55.80
2017-07-22T13:07:21.373Z,57.30
2017-07-22T13:10:08.659Z,59.70
2017-07-22T13:12:34.684Z,59.70
2017-07-22T13:15:00.755Z,57.80
2017-07-22T13:17:33.626Z,57.90
2017-07-22T13:20:12.141Z,53.30
2017-07-22T13:22:46.465Z,55.20
2017-07-22T13:28:14.171Z,55.20
2017-07-22T13:33:33.301Z,55.00
2017-07-22T13:36:03.334Z,57.00
2017-07-22T13:41:36.367Z,56.50
2017-07-22T13:44:12.809Z,59.50
2017-07-22T13:46:47.132Z,63.90
2017-07-22T13:49:21.648Z,64.90
2017-07-22T13:51:54.086Z,65.20
2017-07-22T13:54:30.353Z,66.10
2017-07-22T13:57:01.746Z,74.20
2017-07-22T13:59:35.878Z,74.20
2017-07-22T14:02:12.354Z,75.90
2017-07-22T14:04:45.701Z,80.60
2017-07-22T14:07:18.918Z,79.20
2017-07-22T14:09:53.225Z,79.20
2017-07-22T14:12:27.544Z,78.00
2017-07-22T14:15:01.705Z,81.50
2017-07-22T14:17:38.021Z,79.50
2017-07-22T14:20:07.393Z,75.80
2017-07-22T14:22:43.802Z,73.10
2017-07-22T14:25:16.170Z,73.60
2017-07-22T14:27:42.117Z,73.10
2017-07-22T14:30:14.879Z,71.20
2017-07-22T14:33:01.334Z,69.40
2017-07-22T14:35:33.750Z,69.10
2017-07-22T14:37:59.774Z,65.60
2017-07-22T14:40:25.750Z,65.90
2017-07-22T14:42:52.722Z,65.20
2017-07-22T14:45:25.957Z,59.30
2017-07-22T14:48:02.459Z,59.30
2017-07-22T14:50:48.688Z,58.50
2017-07-22T14:53:16.753Z,58.00
2017-07-22T14:56:03.750Z,57.40
2017-07-22T14:58:34.230Z,57.00
2017-07-22T15:01:14.419Z,57.20
2017-07-22T15:03:48.817Z,57.10
2017-07-22T15:06:19.092Z,56.40
2017-07-22T15:08:49.599Z,57.20
2017-07-22T15:11:16.596Z,57.20
2017-07-22T15:14:04.209Z,56.20
2017-07-22T15:16:38.649Z,55.50
2017-07-22T15:19:12.985Z,54.90
2017-07-22T15:21:46.435Z,54.70
2017-07-22T15:24:21.818Z,54.60
2017-07-22T15:26:48.226Z,54.50
2017-07-22T15:29:34.618Z,53.70
2017-07-22T15:32:01.293Z,53.70
2017-07-22T15:37:41.106Z,52.70
2017-07-22T15:40:07.088Z,52.10
2017-07-22T15:42:40.956Z,52.30
2017-07-22T15:45:06.927Z,52.00
2017-07-22T15:47:39.581Z,53.20
2017-07-22T15:50:30.006Z,52.10
2017-07-22T15:53:06.738Z,51.70
2017-07-22T15:55:34.826Z,51.30
2017-07-22T15:58:01.855Z,51.60
2017-07-22T16:00:38.634Z,51.80
2017-07-22T16:03:10.902Z,51.00
2017-07-22T16:08:45.686Z,50.60
2017-07-22T16:11:30.019Z,50.50
2017-07-22T16:14:20.835Z,50.40
2017-07-22T16:17:06.274Z,50.30
2017-07-22T16:19:40.657Z,51.40
2017-07-22T16:22:17.058Z,52.00
2017-07-22T16:27:36.890Z,52.30
2017-07-22T16:30:10.891Z,52.00
2017-07-22T16:32:54.198Z,51.90
2017-07-22T16:35:30.646Z,51.90
2017-07-22T16:38:03.007Z,52.50
2017-07-22T16:40:37.338Z,52.20
2017-07-22T16:43:11.661Z,52.50
2017-07-22T16:45:45.147Z,52.70
2017-07-22T16:48:18.477Z,52.50
2017-07-22T16:50:52.800Z,52.20
2017-07-22T16:53:18.746Z,51.80
2017-07-22T16:55:58.738Z,52.40
2017-07-22T16:58:35.339Z,50.40
2017-07-22T17:01:08.589Z,48.30
2017-07-22T17:03:43.023Z,48.20
2017-07-22T17:06:14.446Z,48.10
2017-07-22T17:08:42.421Z,48.30
2017-07-22T17:11:13.186Z,49.60
2017-07-22T17:13:43.434Z,48.90
2017-07-22T17:16:09.418Z,49.60
2017-07-22T17:18:40.054Z,51.00
2017-07-22T17:21:06.090Z,51.00
2017-07-22T17:23:37.542Z,51.70
2017-07-22T17:26:09.938Z,52.80
2017-07-22T17:29:00.485Z,52.80
2017-07-22T17:34:23.599Z,53.70
2017-07-22T17:36:53.685Z,55.70
2017-07-22T17:39:20.372Z,56.70
2017-07-22T17:41:50.348Z,57.10
2017-07-22T17:44:16.363Z,57.20
2017-07-22T17:46:44.398Z,57.40
2017-07-22T17:49:37.084Z,57.10
2017-07-22T17:52:28.573Z,57.30
2017-07-22T17:55:05.179Z,57.30
2017-07-22T17:57:36.327Z,57.80
2017-07-22T18:00:14.334Z,57.50
2017-07-22T18:02:44.038Z,57.40
2017-07-22T18:05:21.444Z,56.90
2017-07-22T18:07:50.822Z,56.90
2017-07-22T18:10:18.597Z,57.30
2017-07-22T18:13:03.401Z,58.10
2017-07-22T18:15:33.805Z,58.00
2017-07-22T18:18:01.845Z,58.40
2017-07-22T18:26:17.656Z,56.80
2017-07-22T18:28:44.406Z,57.80
2017-07-22T18:31:13.093Z,58.30
2017-07-22T18:33:39.106Z,58.30
2017-07-22T18:36:05.141Z,59.60
2017-07-22T18:38:35.045Z,59.30
2017-07-22T18:41:01.020Z,59.60
2017-07-22T18:43:30.745Z,59.40
2017-07-22T18:45:56.673Z,59.40
2017-07-22T18:48:23.632Z,59.70
2017-07-22T18:50:49.590Z,60.80
2017-07-22T18:53:15.517Z,60.70
2017-07-22T18:55:41.482Z,60.80
2017-07-22T18:58:09.327Z,60.80
2017-07-22T19:00:35.304Z,61.00
2017-07-22T19:03:01.334Z,60.90
2017-07-22T19:05:27.304Z,61.80
2017-07-22T19:07:53.250Z,61.40
2017-07-22T19:10:20.220Z,61.70
2017-07-22T19:12:48.013Z,62.50
2017-07-22T19:15:18.205Z,62.50
2017-07-22T19:17:49.457Z,63.70
2017-07-22T19:20:27.001Z,64.70
2017-07-22T19:22:59.821Z,64.70
2017-07-22T19:25:27.886Z,65.40
2017-07-22T19:28:07.065Z,64.30
2017-07-22T19:30:36.649Z,65.70
2017-07-22T19:33:09.964Z,65.50
2017-07-22T19:35:35.895Z,65.40
2017-07-22T19:38:12.455Z,65.60
2017-07-22T19:40:41.955Z,65.00
2017-07-22T19:43:21.410Z,63.30
2017-07-22T19:46:02.887Z,63.10
2017-07-22T19:48:40.265Z,63.30
2017-07-22T19:51:08.253Z,63.00
2017-07-22T19:53:45.159Z,62.80
2017-07-22T19:56:11.122Z,62.40
2017-07-22T19:58:45.903Z,66.50
2017-07-22T20:01:11.881Z,66.50
2017-07-22T20:03:37.798Z,67.80
2017-07-22T20:06:09.769Z,69.90
2017-07-22T20:08:35.797Z,69.40
2017-07-22T20:11:02.519Z,69.60
2017-07-22T20:13:28.555Z,68.90
2017-07-22T20:15:58.584Z,69.10
2017-07-22T20:18:44.780Z,69.10
2017-07-22T20:21:11.462Z,71.40
2017-07-22T20:23:40.535Z,71.40
2017-07-22T20:26:10.866Z,72.20
2017-07-22T20:28:53.046Z,72.60
2017-07-22T20:31:20.031Z,72.60
2017-07-22T20:33:55.634Z,71.70
2017-07-22T20:39:15.714Z,71.70
2017-07-22T20:41:44.968Z,71.30
2017-07-22T20:44:22.281Z,70.60
2017-07-22T20:46:54.762Z,70.60
2017-07-22T20:49:24.154Z,69.90
2017-07-22T20:51:53.344Z,69.90
2017-07-22T20:54:29.867Z,69.70
2017-07-22T20:56:55.897Z,69.50
2017-07-22T20:59:28.534Z,69.70
2017-07-22T21:02:02.727Z,71.20
2017-07-22T21:04:33.243Z,71.40
2017-07-22T21:07:16.629Z,71.40
2017-07-22T21:09:42.561Z,71.50
2017-07-22T21:12:19.318Z,71.60
2017-07-22T21:15:00.910Z,71.40
2017-07-22T21:17:38.382Z,71.30
2017-07-22T21:20:10.790Z,72.00
2017-07-22T21:22:43.241Z,73.40
2017-07-22T21:25:09.203Z,73.80
2017-07-22T21:27:35.168Z,74.70
2017-07-22T21:30:02.953Z,73.20
2017-07-22T21:32:33.592Z,73.00
2017-07-22T21:34:59.571Z,73.00
2017-07-22T21:37:30.958Z,73.40
2017-07-22T21:42:51.990Z,74.00
2017-07-22T21:45:25.282Z,73.30
2017-07-22T21:47:54.078Z,72.40
2017-07-22T21:50:32.797Z,72.60
2017-07-22T21:52:58.824Z,72.60
2017-07-22T21:55:30.562Z,72.10
2017-07-22T21:58:01.015Z,72.30
2017-07-22T22:00:35.388Z,72.20
2017-07-22T22:03:02.369Z,73.00
2017-07-22T22:05:29.247Z,73.80
2017-07-22T22:07:55.200Z,73.80
2017-07-22T22:10:21.157Z,73.80
2017-07-22T22:12:47.872Z,74.30
2017-07-22T22:15:17.113Z,74.30
2017-07-22T22:17:43.855Z,74.60
2017-07-22T22:20:10.545Z,74.50
2017-07-22T22:22:36.654Z,74.40
2017-07-22T22:25:02.608Z,74.30
2017-07-22T22:27:28.549Z,75.10
2017-07-22T22:30:02.430Z,75.10
2017-07-22T22:32:28.365Z,75.00
2017-07-22T22:34:54.306Z,75.20
2017-07-22T22:37:20.252Z,75.60
2017-07-22T22:39:46.192Z,75.60
2017-07-22T22:42:12.139Z,76.50
2017-07-22T22:44:38.840Z,84.50
2017-07-22T22:47:04.781Z,84.60
2017-07-22T22:49:30.770Z,89.40
2017-07-22T22:51:56.707Z,90.60
2017-07-22T22:54:22.651Z,91.50
2017-07-22T22:56:48.586Z,91.70
2017-07-22T22:59:14.485Z,92.30
2017-07-22T23:01:40.571Z,92.10
2017-07-22T23:04:06.511Z,92.50
2017-07-22T23:06:32.483Z,92.30
2017-07-22T23:09:00.506Z,92.30
2017-07-22T23:11:27.214Z,92.20
2017-07-22T23:13:53.182Z,92.20
2017-07-22T23:16:19.874Z,92.10
2017-07-22T23:18:45.805Z,92.10
2017-07-22T23:21:11.766Z,92.10
2017-07-22T23:23:37.713Z,92.20
2017-07-22T23:26:04.447Z,91.80
2017-07-22T23:28:30.382Z,91.80
2017-07-22T23:30:57.093Z,91.80
2017-07-22T23:33:23.050Z,91.80
2017-07-22T23:35:49.015Z,91.60
2017-07-22T23:38:14.947Z,91.80
2017-07-22T23:40:40.873Z,91.60
2017-07-22T23:43:06.802Z,92.20
2017-07-22T23:45:32.776Z,92.70
2017-07-22T23:47:58.762Z,92.90
2017-07-22T23:50:24.730Z,93.00
2017-07-22T23:52:50.703Z,92.90
2017-07-22T23:55:16.654Z,93.10
2017-07-22T23:57:42.612Z,93.10
